sensor_id;sensor_type;location;lat;lon;timestamp;P1;durP1;ratioP1;P2;durP2;ratioP2
18449;SDS011;9354;50.194;7.690;2022-11-20T00:01:29;39.20;;;13.57;;
18449;SDS011;9354;50.194;7.690;2022-11-20T00:03:57;36.17;;;13.90;;
18449;SDS011;9354;50.194;7.690;2022-11-20T00:06:27;44.17;;;14.33;;
18449;SDS011;9354;50.194;7.690;2022-11-20T00:08:55;38.03;;;13.93;;
18449;SDS011;9354;50.194;7.690;2022-11-20T00:11:25;38.60;;;14.57;;
18449;SDS011;9354;50.194;7.690;2022-11-20T00:13:54;39.13;;;14.23;;
18449;SDS011;9354;50.194;7.690;2022-11-20T00:16:24;45.40;;;14.53;;
18449;SDS011;9354;50.194;7.690;2022-11-20T00:18:53;38.73;;;14.43;;
18449;SDS011;9354;50.194;7.690;2022-11-20T00:21:22;39.60;;;14.60;;
18449;SDS011;9354;50.194;7.690;2022-11-20T00:23:53;41.50;;;15.50;;
18449;SDS011;9354;50.194;7.690;2022-11-20T00:26:21;50.20;;;15.53;;
18449;SDS011;9354;50.194;7.690;2022-11-20T00:28:50;44.23;;;15.87;;
18449;SDS011;9354;50.194;7.690;2022-11-20T00:31:19;42.37;;;14.63;;
18449;SDS011;9354;50.194;7.690;2022-11-20T00:33:47;38.70;;;13.77;;
18449;SDS011;9354;50.194;7.690;2022-11-20T00:36:16;41.90;;;14.43;;
18449;SDS011;9354;50.194;7.690;2022-11-20T00:38:44;38.90;;;13.97;;
18449;SDS011;9354;50.194;7.690;2022-11-20T00:41:14;41.57;;;14.30;;
18449;SDS011;9354;50.194;7.690;2022-11-20T00:43:42;39.87;;;14.23;;
18449;SDS011;9354;50.194;7.690;2022-11-20T00:46:12;40.80;;;14.33;;
18449;SDS011;9354;50.194;7.690;2022-11-20T00:48:41;34.43;;;13.17;;
18449;SDS011;9354;50.194;7.690;2022-11-20T00:51:08;53.90;;;12.87;;
18449;SDS011;9354;50.194;7.690;2022-11-20T00:53:37;33.30;;;13.20;;
18449;SDS011;9354;50.194;7.690;2022-11-20T00:56:05;34.13;;;12.93;;
18449;SDS011;9354;50.194;7.690;2022-11-20T00:58:36;35.90;;;13.20;;
18449;SDS011;9354;50.194;7.690;2022-11-20T01:01:04;34.10;;;13.03;;
18449;SDS011;9354;50.194;7.690;2022-11-20T01:03:33;35.70;;;13.67;;
18449;SDS011;9354;50.194;7.690;2022-11-20T01:06:03;35.97;;;13.10;;
18449;SDS011;9354;50.194;7.690;2022-11-20T01:08:32;32.23;;;12.60;;
18449;SDS011;9354;50.194;7.690;2022-11-20T01:11:01;34.03;;;12.57;;
18449;SDS011;9354;50.194;7.690;2022-11-20T01:13:30;33.90;;;12.33;;
18449;SDS011;9354;50.194;7.690;2022-11-20T01:16:06;29.10;;;11.50;;
18449;SDS011;9354;50.194;7.690;2022-11-20T01:18:34;30.97;;;12.73;;
18449;SDS011;9354;50.194;7.690;2022-11-20T01:21:03;31.33;;;12.80;;
18449;SDS011;9354;50.194;7.690;2022-11-20T01:23:32;33.70;;;12.70;;
18449;SDS011;9354;50.194;7.690;2022-11-20T01:26:00;36.13;;;12.50;;
18449;SDS011;9354;50.194;7.690;2022-11-20T01:28:29;35.50;;;12.60;;
18449;SDS011;9354;50.194;7.690;2022-11-20T01:30:57;38.37;;;12.63;;
18449;SDS011;9354;50.194;7.690;2022-11-20T01:33:26;42.03;;;13.40;;
18449;SDS011;9354;50.194;7.690;2022-11-20T01:36:02;36.23;;;13.13;;
18449;SDS011;9354;50.194;7.690;2022-11-20T01:38:31;35.70;;;12.70;;
18449;SDS011;9354;50.194;7.690;2022-11-20T01:40:58;35.90;;;12.70;;
18449;SDS011;9354;50.194;7.690;2022-11-20T01:43:26;36.63;;;13.47;;
18449;SDS011;9354;50.194;7.690;2022-11-20T01:46:01;42.80;;;13.37;;
18449;SDS011;9354;50.194;7.690;2022-11-20T01:48:33;37.20;;;13.03;;
18449;SDS011;9354;50.194;7.690;2022-11-20T01:51:04;49.43;;;12.97;;
18449;SDS011;9354;50.194;7.690;2022-11-20T01:53:37;197.83;;;16.30;;
18449;SDS011;9354;50.194;7.690;2022-11-20T01:56:05;38.93;;;12.63;;
18449;SDS011;9354;50.194;7.690;2022-11-20T01:58:37;51.97;;;12.03;;
18449;SDS011;9354;50.194;7.690;2022-11-20T02:01:08;115.73;;;14.10;;
18449;SDS011;9354;50.194;7.690;2022-11-20T02:03:37;44.87;;;12.60;;
18449;SDS011;9354;50.194;7.690;2022-11-20T02:06:07;65.50;;;13.23;;
18449;SDS011;9354;50.194;7.690;2022-11-20T02:08:39;67.40;;;12.53;;
18449;SDS011;9354;50.194;7.690;2022-11-20T02:11:06;38.77;;;12.60;;
18449;SDS011;9354;50.194;7.690;2022-11-20T02:13:34;39.90;;;12.60;;
18449;SDS011;9354;50.194;7.690;2022-11-20T02:16:11;119.93;;;14.80;;
18449;SDS011;9354;50.194;7.690;2022-11-20T02:18:42;47.77;;;13.57;;
18449;SDS011;9354;50.194;7.690;2022-11-20T02:21:13;36.73;;;12.23;;
18449;SDS011;9354;50.194;7.690;2022-11-20T02:26:39;35.40;;;11.97;;
18449;SDS011;9354;50.194;7.690;2022-11-20T02:29:11;33.93;;;12.47;;
18449;SDS011;9354;50.194;7.690;2022-11-20T02:31:40;30.67;;;12.03;;
18449;SDS011;9354;50.194;7.690;2022-11-20T02:34:09;28.77;;;11.17;;
18449;SDS011;9354;50.194;7.690;2022-11-20T02:36:38;39.17;;;12.97;;
18449;SDS011;9354;50.194;7.690;2022-11-20T02:39:10;36.33;;;12.87;;
18449;SDS011;9354;50.194;7.690;2022-11-20T02:41:42;35.53;;;12.00;;
18449;SDS011;9354;50.194;7.690;2022-11-20T02:44:09;34.20;;;11.97;;
18449;SDS011;9354;50.194;7.690;2022-11-20T02:46:36;35.87;;;12.73;;
18449;SDS011;9354;50.194;7.690;2022-11-20T02:49:04;31.23;;;11.90;;
18449;SDS011;9354;50.194;7.690;2022-11-20T02:51:32;33.53;;;12.27;;
18449;SDS011;9354;50.194;7.690;2022-11-20T02:53:59;30.83;;;12.13;;
18449;SDS011;9354;50.194;7.690;2022-11-20T02:56:28;28.87;;;11.33;;
18449;SDS011;9354;50.194;7.690;2022-11-20T02:58:56;30.43;;;11.53;;
18449;SDS011;9354;50.194;7.690;2022-11-20T03:01:23;32.10;;;12.13;;
18449;SDS011;9354;50.194;7.690;2022-11-20T03:03:51;27.93;;;11.60;;
18449;SDS011;9354;50.194;7.690;2022-11-20T03:06:20;27.57;;;11.70;;
18449;SDS011;9354;50.194;7.690;2022-11-20T03:08:47;24.43;;;10.53;;
18449;SDS011;9354;50.194;7.690;2022-11-20T03:11:15;27.07;;;10.87;;
18449;SDS011;9354;50.194;7.690;2022-11-20T03:13:44;26.13;;;10.97;;
18449;SDS011;9354;50.194;7.690;2022-11-20T03:16:13;27.33;;;10.77;;
18449;SDS011;9354;50.194;7.690;2022-11-20T03:18:42;25.63;;;10.50;;
18449;SDS011;9354;50.194;7.690;2022-11-20T03:21:10;28.70;;;11.30;;
18449;SDS011;9354;50.194;7.690;2022-11-20T03:23:38;27.43;;;11.17;;
18449;SDS011;9354;50.194;7.690;2022-11-20T03:26:07;25.80;;;10.83;;
18449;SDS011;9354;50.194;7.690;2022-11-20T03:28:40;25.10;;;9.53;;
18449;SDS011;9354;50.194;7.690;2022-11-20T03:31:10;29.87;;;10.60;;
18449;SDS011;9354;50.194;7.690;2022-11-20T03:33:39;24.40;;;10.40;;
18449;SDS011;9354;50.194;7.690;2022-11-20T03:36:07;24.80;;;10.17;;
18449;SDS011;9354;50.194;7.690;2022-11-20T03:38:36;23.07;;;9.80;;
18449;SDS011;9354;50.194;7.690;2022-11-20T03:41:05;27.63;;;10.40;;
18449;SDS011;9354;50.194;7.690;2022-11-20T03:43:34;25.80;;;10.33;;
18449;SDS011;9354;50.194;7.690;2022-11-20T03:46:02;25.90;;;10.77;;
18449;SDS011;9354;50.194;7.690;2022-11-20T03:48:33;27.97;;;9.90;;
18449;SDS011;9354;50.194;7.690;2022-11-20T03:51:07;32.50;;;10.47;;
18449;SDS011;9354;50.194;7.690;2022-11-20T03:53:36;32.57;;;11.30;;
18449;SDS011;9354;50.194;7.690;2022-11-20T03:56:04;31.80;;;10.90;;
18449;SDS011;9354;50.194;7.690;2022-11-20T03:58:32;29.47;;;11.17;;
18449;SDS011;9354;50.194;7.690;2022-11-20T04:01:04;30.53;;;10.20;;
18449;SDS011;9354;50.194;7.690;2022-11-20T04:03:34;29.70;;;11.10;;
18449;SDS011;9354;50.194;7.690;2022-11-20T04:06:03;29.70;;;10.67;;
18449;SDS011;9354;50.194;7.690;2022-11-20T04:08:32;29.20;;;10.53;;
18449;SDS011;9354;50.194;7.690;2022-11-20T04:11:09;28.80;;;11.17;;
18449;SDS011;9354;50.194;7.690;2022-11-20T04:13:37;27.87;;;11.30;;
18449;SDS011;9354;50.194;7.690;2022-11-20T04:16:05;26.23;;;10.77;;
18449;SDS011;9354;50.194;7.690;2022-11-20T04:18:35;32.63;;;11.93;;
18449;SDS011;9354;50.194;7.690;2022-11-20T04:21:04;27.50;;;10.83;;
18449;SDS011;9354;50.194;7.690;2022-11-20T04:23:32;33.57;;;11.30;;
18449;SDS011;9354;50.194;7.690;2022-11-20T04:26:02;33.87;;;11.50;;
18449;SDS011;9354;50.194;7.690;2022-11-20T04:28:30;34.20;;;11.70;;
18449;SDS011;9354;50.194;7.690;2022-11-20T04:31:01;32.57;;;11.40;;
18449;SDS011;9354;50.194;7.690;2022-11-20T04:33:30;42.50;;;11.93;;
18449;SDS011;9354;50.194;7.690;2022-11-20T04:36:01;34.73;;;11.33;;
18449;SDS011;9354;50.194;7.690;2022-11-20T04:38:30;40.60;;;11.73;;
18449;SDS011;9354;50.194;7.690;2022-11-20T04:40:58;52.80;;;12.27;;
18449;SDS011;9354;50.194;7.690;2022-11-20T04:43:25;45.80;;;12.83;;
18449;SDS011;9354;50.194;7.690;2022-11-20T04:45:53;68.57;;;12.03;;
18449;SDS011;9354;50.194;7.690;2022-11-20T04:48:22;105.53;;;13.00;;
18449;SDS011;9354;50.194;7.690;2022-11-20T04:50:49;43.03;;;12.83;;
18449;SDS011;9354;50.194;7.690;2022-11-20T04:53:18;57.63;;;10.83;;
18449;SDS011;9354;50.194;7.690;2022-11-20T04:55:47;59.10;;;12.10;;
18449;SDS011;9354;50.194;7.690;2022-11-20T04:58:14;63.23;;;11.40;;
18449;SDS011;9354;50.194;7.690;2022-11-20T05:00:42;66.87;;;13.73;;
18449;SDS011;9354;50.194;7.690;2022-11-20T05:03:10;123.10;;;14.40;;
18449;SDS011;9354;50.194;7.690;2022-11-20T05:05:37;38.10;;;12.07;;
18449;SDS011;9354;50.194;7.690;2022-11-20T05:08:04;87.97;;;13.70;;
18449;SDS011;9354;50.194;7.690;2022-11-20T05:10:33;55.30;;;12.37;;
18449;SDS011;9354;50.194;7.690;2022-11-20T05:13:01;62.80;;;12.83;;
18449;SDS011;9354;50.194;7.690;2022-11-20T05:15:28;57.23;;;12.43;;
18449;SDS011;9354;50.194;7.690;2022-11-20T05:17:55;47.67;;;12.33;;
18449;SDS011;9354;50.194;7.690;2022-11-20T05:20:23;129.17;;;14.07;;
18449;SDS011;9354;50.194;7.690;2022-11-20T05:22:50;74.43;;;12.63;;
18449;SDS011;9354;50.194;7.690;2022-11-20T05:25:17;77.23;;;13.47;;
18449;SDS011;9354;50.194;7.690;2022-11-20T05:27:46;78.70;;;12.83;;
18449;SDS011;9354;50.194;7.690;2022-11-20T05:30:14;54.50;;;12.67;;
18449;SDS011;9354;50.194;7.690;2022-11-20T05:32:41;49.07;;;12.83;;
18449;SDS011;9354;50.194;7.690;2022-11-20T05:35:09;78.63;;;12.63;;
18449;SDS011;9354;50.194;7.690;2022-11-20T05:37:36;79.37;;;12.60;;
18449;SDS011;9354;50.194;7.690;2022-11-20T05:40:04;62.47;;;11.50;;
18449;SDS011;9354;50.194;7.690;2022-11-20T05:42:32;68.60;;;11.50;;
18449;SDS011;9354;50.194;7.690;2022-11-20T05:45:03;59.37;;;11.50;;
18449;SDS011;9354;50.194;7.690;2022-11-20T05:47:31;41.63;;;11.97;;
18449;SDS011;9354;50.194;7.690;2022-11-20T05:50:00;48.57;;;10.50;;
18449;SDS011;9354;50.194;7.690;2022-11-20T05:52:28;73.23;;;12.23;;
18449;SDS011;9354;50.194;7.690;2022-11-20T05:54:56;70.93;;;10.97;;
18449;SDS011;9354;50.194;7.690;2022-11-20T05:57:23;42.13;;;9.53;;
18449;SDS011;9354;50.194;7.690;2022-11-20T05:59:51;62.00;;;10.17;;
18449;SDS011;9354;50.194;7.690;2022-11-20T06:02:19;68.27;;;11.40;;
18449;SDS011;9354;50.194;7.690;2022-11-20T06:04:47;37.10;;;10.70;;
18449;SDS011;9354;50.194;7.690;2022-11-20T06:07:14;40.03;;;11.20;;
18449;SDS011;9354;50.194;7.690;2022-11-20T06:09:42;32.27;;;10.30;;
18449;SDS011;9354;50.194;7.690;2022-11-20T06:12:09;44.73;;;10.53;;
18449;SDS011;9354;50.194;7.690;2022-11-20T06:14:37;35.40;;;10.23;;
18449;SDS011;9354;50.194;7.690;2022-11-20T06:17:04;37.23;;;10.80;;
18449;SDS011;9354;50.194;7.690;2022-11-20T06:19:33;41.77;;;10.87;;
18449;SDS011;9354;50.194;7.690;2022-11-20T06:22:00;31.70;;;9.27;;
18449;SDS011;9354;50.194;7.690;2022-11-20T06:24:28;27.47;;;9.43;;
18449;SDS011;9354;50.194;7.690;2022-11-20T06:26:55;47.83;;;11.00;;
18449;SDS011;9354;50.194;7.690;2022-11-20T06:29:22;67.37;;;10.80;;
18449;SDS011;9354;50.194;7.690;2022-11-20T06:31:50;35.43;;;9.73;;
18449;SDS011;9354;50.194;7.690;2022-11-20T06:34:17;37.03;;;10.03;;
18449;SDS011;9354;50.194;7.690;2022-11-20T06:36:46;66.87;;;12.50;;
18449;SDS011;9354;50.194;7.690;2022-11-20T06:39:13;49.93;;;10.60;;
18449;SDS011;9354;50.194;7.690;2022-11-20T06:41:41;43.27;;;10.23;;
18449;SDS011;9354;50.194;7.690;2022-11-20T06:44:08;37.63;;;11.60;;
18449;SDS011;9354;50.194;7.690;2022-11-20T06:46:35;43.27;;;10.27;;
18449;SDS011;9354;50.194;7.690;2022-11-20T06:49:03;36.73;;;9.57;;
18449;SDS011;9354;50.194;7.690;2022-11-20T06:51:30;34.77;;;10.40;;
18449;SDS011;9354;50.194;7.690;2022-11-20T06:53:59;43.97;;;11.27;;
18449;SDS011;9354;50.194;7.690;2022-11-20T06:56:27;45.17;;;11.00;;
18449;SDS011;9354;50.194;7.690;2022-11-20T06:58:54;33.60;;;10.90;;
18449;SDS011;9354;50.194;7.690;2022-11-20T07:01:21;46.37;;;10.87;;
18449;SDS011;9354;50.194;7.690;2022-11-20T07:03:49;42.23;;;11.30;;
18449;SDS011;9354;50.194;7.690;2022-11-20T07:06:17;36.93;;;11.17;;
18449;SDS011;9354;50.194;7.690;2022-11-20T07:08:44;44.70;;;12.43;;
18449;SDS011;9354;50.194;7.690;2022-11-20T07:11:13;70.33;;;12.50;;
18449;SDS011;9354;50.194;7.690;2022-11-20T07:13:41;95.70;;;13.70;;
18449;SDS011;9354;50.194;7.690;2022-11-20T07:16:08;45.37;;;12.87;;
18449;SDS011;9354;50.194;7.690;2022-11-20T07:18:36;41.80;;;11.43;;
18449;SDS011;9354;50.194;7.690;2022-11-20T07:21:04;46.87;;;11.47;;
18449;SDS011;9354;50.194;7.690;2022-11-20T07:23:32;56.90;;;12.33;;
18449;SDS011;9354;50.194;7.690;2022-11-20T07:26:02;36.73;;;11.77;;
18449;SDS011;9354;50.194;7.690;2022-11-20T07:28:31;60.00;;;12.93;;
18449;SDS011;9354;50.194;7.690;2022-11-20T07:30:59;61.03;;;12.27;;
18449;SDS011;9354;50.194;7.690;2022-11-20T07:33:26;93.47;;;12.63;;
18449;SDS011;9354;50.194;7.690;2022-11-20T07:35:54;43.53;;;12.00;;
18449;SDS011;9354;50.194;7.690;2022-11-20T07:38:21;42.30;;;11.57;;
18449;SDS011;9354;50.194;7.690;2022-11-20T07:40:52;41.73;;;11.60;;
18449;SDS011;9354;50.194;7.690;2022-11-20T07:43:20;64.60;;;14.10;;
18449;SDS011;9354;50.194;7.690;2022-11-20T07:45:49;58.00;;;13.43;;
18449;SDS011;9354;50.194;7.690;2022-11-20T07:48:17;41.13;;;11.67;;
18449;SDS011;9354;50.194;7.690;2022-11-20T07:50:44;64.67;;;13.17;;
18449;SDS011;9354;50.194;7.690;2022-11-20T07:53:11;57.60;;;12.07;;
18449;SDS011;9354;50.194;7.690;2022-11-20T07:55:39;88.17;;;14.33;;
18449;SDS011;9354;50.194;7.690;2022-11-20T07:58:06;49.57;;;12.30;;
18449;SDS011;9354;50.194;7.690;2022-11-20T08:00:35;44.27;;;12.43;;
18449;SDS011;9354;50.194;7.690;2022-11-20T08:03:04;68.40;;;12.70;;
18449;SDS011;9354;50.194;7.690;2022-11-20T08:05:32;44.77;;;11.57;;
18449;SDS011;9354;50.194;7.690;2022-11-20T08:08:00;51.03;;;13.33;;
18449;SDS011;9354;50.194;7.690;2022-11-20T08:10:27;60.13;;;13.47;;
18449;SDS011;9354;50.194;7.690;2022-11-20T08:12:54;40.50;;;12.90;;
18449;SDS011;9354;50.194;7.690;2022-11-20T08:15:39;43.00;;;13.13;;
18449;SDS011;9354;50.194;7.690;2022-11-20T08:18:09;42.97;;;12.40;;
18449;SDS011;9354;50.194;7.690;2022-11-20T08:20:37;48.10;;;12.80;;
18449;SDS011;9354;50.194;7.690;2022-11-20T08:23:06;45.03;;;13.77;;
18449;SDS011;9354;50.194;7.690;2022-11-20T08:25:34;37.63;;;13.23;;
18449;SDS011;9354;50.194;7.690;2022-11-20T08:28:04;43.50;;;13.77;;
18449;SDS011;9354;50.194;7.690;2022-11-20T08:30:33;34.43;;;11.87;;
18449;SDS011;9354;50.194;7.690;2022-11-20T08:33:01;36.77;;;11.50;;
18449;SDS011;9354;50.194;7.690;2022-11-20T08:35:34;41.53;;;12.37;;
18449;SDS011;9354;50.194;7.690;2022-11-20T08:38:02;35.43;;;11.97;;
18449;SDS011;9354;50.194;7.690;2022-11-20T08:40:30;43.80;;;13.77;;
18449;SDS011;9354;50.194;7.690;2022-11-20T08:42:57;40.73;;;12.70;;
18449;SDS011;9354;50.194;7.690;2022-11-20T08:45:25;37.63;;;11.60;;
18449;SDS011;9354;50.194;7.690;2022-11-20T08:47:52;36.70;;;11.33;;
18449;SDS011;9354;50.194;7.690;2022-11-20T08:50:20;31.13;;;10.70;;
18449;SDS011;9354;50.194;7.690;2022-11-20T08:52:49;37.07;;;10.67;;
18449;SDS011;9354;50.194;7.690;2022-11-20T08:55:16;34.27;;;10.80;;
18449;SDS011;9354;50.194;7.690;2022-11-20T08:57:44;33.57;;;10.97;;
18449;SDS011;9354;50.194;7.690;2022-11-20T09:00:11;37.13;;;12.33;;
18449;SDS011;9354;50.194;7.690;2022-11-20T09:02:40;29.30;;;10.97;;
18449;SDS011;9354;50.194;7.690;2022-11-20T09:05:07;33.43;;;10.90;;
18449;SDS011;9354;50.194;7.690;2022-11-20T09:07:35;28.50;;;11.03;;
18449;SDS011;9354;50.194;7.690;2022-11-20T09:10:04;37.47;;;11.83;;
18449;SDS011;9354;50.194;7.690;2022-11-20T09:12:33;29.93;;;11.63;;
18449;SDS011;9354;50.194;7.690;2022-11-20T09:15:00;29.27;;;10.97;;
18449;SDS011;9354;50.194;7.690;2022-11-20T09:17:28;44.47;;;12.40;;
18449;SDS011;9354;50.194;7.690;2022-11-20T09:19:55;40.33;;;13.10;;
18449;SDS011;9354;50.194;7.690;2022-11-20T09:22:22;31.70;;;11.77;;
18449;SDS011;9354;50.194;7.690;2022-11-20T09:24:50;36.80;;;12.10;;
18449;SDS011;9354;50.194;7.690;2022-11-20T09:27:19;60.70;;;12.43;;
18449;SDS011;9354;50.194;7.690;2022-11-20T09:29:47;59.13;;;12.10;;
18449;SDS011;9354;50.194;7.690;2022-11-20T09:32:15;39.67;;;11.20;;
18449;SDS011;9354;50.194;7.690;2022-11-20T09:34:42;35.33;;;12.00;;
18449;SDS011;9354;50.194;7.690;2022-11-20T09:37:09;35.17;;;12.43;;
18449;SDS011;9354;50.194;7.690;2022-11-20T09:39:37;88.87;;;22.77;;
18449;SDS011;9354;50.194;7.690;2022-11-20T09:42:08;44.70;;;13.47;;
18449;SDS011;9354;50.194;7.690;2022-11-20T09:44:54;44.13;;;14.83;;
18449;SDS011;9354;50.194;7.690;2022-11-20T09:47:43;40.53;;;13.43;;
18449;SDS011;9354;50.194;7.690;2022-11-20T09:50:27;25.97;;;9.30;;
18449;SDS011;9354;50.194;7.690;2022-11-20T09:53:02;24.90;;;10.03;;
18449;SDS011;9354;50.194;7.690;2022-11-20T09:55:37;24.97;;;10.57;;
18449;SDS011;9354;50.194;7.690;2022-11-20T09:58:07;26.37;;;9.43;;
18449;SDS011;9354;50.194;7.690;2022-11-20T10:00:42;45.93;;;10.93;;
18449;SDS011;9354;50.194;7.690;2022-11-20T10:03:12;33.30;;;10.87;;
18449;SDS011;9354;50.194;7.690;2022-11-20T10:05:46;35.27;;;9.40;;
18449;SDS011;9354;50.194;7.690;2022-11-20T10:08:18;45.60;;;10.77;;
18449;SDS011;9354;50.194;7.690;2022-11-20T10:10:49;27.13;;;9.83;;
18449;SDS011;9354;50.194;7.690;2022-11-20T10:13:27;29.60;;;10.03;;
18449;SDS011;9354;50.194;7.690;2022-11-20T10:16:09;29.33;;;10.90;;
18449;SDS011;9354;50.194;7.690;2022-11-20T10:18:50;26.73;;;9.30;;
18449;SDS011;9354;50.194;7.690;2022-11-20T10:21:29;23.93;;;9.10;;
18449;SDS011;9354;50.194;7.690;2022-11-20T10:27:11;27.90;;;9.73;;
18449;SDS011;9354;50.194;7.690;2022-11-20T10:29:58;25.30;;;9.37;;
18449;SDS011;9354;50.194;7.690;2022-11-20T10:32:30;31.60;;;10.13;;
18449;SDS011;9354;50.194;7.690;2022-11-20T10:35:03;23.50;;;8.27;;
18449;SDS011;9354;50.194;7.690;2022-11-20T10:37:37;23.53;;;8.47;;
18449;SDS011;9354;50.194;7.690;2022-11-20T10:40:15;25.23;;;9.00;;
18449;SDS011;9354;50.194;7.690;2022-11-20T10:42:49;29.50;;;9.93;;
18449;SDS011;9354;50.194;7.690;2022-11-20T10:45:31;27.77;;;9.90;;
18449;SDS011;9354;50.194;7.690;2022-11-20T10:48:21;26.07;;;9.30;;
18449;SDS011;9354;50.194;7.690;2022-11-20T10:51:03;23.57;;;9.30;;
18449;SDS011;9354;50.194;7.690;2022-11-20T10:53:51;26.20;;;9.23;;
18449;SDS011;9354;50.194;7.690;2022-11-20T10:56:27;24.40;;;9.13;;
18449;SDS011;9354;50.194;7.690;2022-11-20T10:59:03;25.67;;;9.33;;
18449;SDS011;9354;50.194;7.690;2022-11-20T11:01:46;18.87;;;8.23;;
18449;SDS011;9354;50.194;7.690;2022-11-20T11:04:18;20.50;;;8.33;;
18449;SDS011;9354;50.194;7.690;2022-11-20T11:07:05;16.70;;;8.10;;
18449;SDS011;9354;50.194;7.690;2022-11-20T11:09:38;20.73;;;8.17;;
18449;SDS011;9354;50.194;7.690;2022-11-20T11:12:09;18.13;;;7.47;;
18449;SDS011;9354;50.194;7.690;2022-11-20T11:14:47;21.07;;;8.17;;
18449;SDS011;9354;50.194;7.690;2022-11-20T11:17:27;17.87;;;7.43;;
18449;SDS011;9354;50.194;7.690;2022-11-20T11:20:04;16.83;;;7.80;;
18449;SDS011;9354;50.194;7.690;2022-11-20T11:22:34;19.83;;;8.40;;
18449;SDS011;9354;50.194;7.690;2022-11-20T11:25:18;19.10;;;8.40;;
18449;SDS011;9354;50.194;7.690;2022-11-20T11:27:48;19.57;;;8.50;;
18449;SDS011;9354;50.194;7.690;2022-11-20T11:30:18;22.20;;;9.00;;
18449;SDS011;9354;50.194;7.690;2022-11-20T11:32:48;20.33;;;9.33;;
18449;SDS011;9354;50.194;7.690;2022-11-20T11:35:19;22.00;;;8.97;;
18449;SDS011;9354;50.194;7.690;2022-11-20T11:37:49;19.40;;;8.47;;
18449;SDS011;9354;50.194;7.690;2022-11-20T11:40:20;22.23;;;9.33;;
18449;SDS011;9354;50.194;7.690;2022-11-20T11:42:51;22.73;;;8.90;;
18449;SDS011;9354;50.194;7.690;2022-11-20T11:45:21;22.53;;;8.60;;
18449;SDS011;9354;50.194;7.690;2022-11-20T11:47:50;25.43;;;9.00;;
18449;SDS011;9354;50.194;7.690;2022-11-20T11:50:19;27.83;;;9.50;;
18449;SDS011;9354;50.194;7.690;2022-11-20T11:52:54;21.70;;;8.70;;
18449;SDS011;9354;50.194;7.690;2022-11-20T11:55:29;28.10;;;10.17;;
18449;SDS011;9354;50.194;7.690;2022-11-20T11:58:01;22.53;;;8.97;;
18449;SDS011;9354;50.194;7.690;2022-11-20T12:00:36;22.73;;;8.43;;
18449;SDS011;9354;50.194;7.690;2022-11-20T12:03:12;24.23;;;9.17;;
18449;SDS011;9354;50.194;7.690;2022-11-20T12:05:44;22.53;;;9.57;;
18449;SDS011;9354;50.194;7.690;2022-11-20T12:08:16;21.70;;;9.17;;
18449;SDS011;9354;50.194;7.690;2022-11-20T12:10:48;22.37;;;9.07;;
18449;SDS011;9354;50.194;7.690;2022-11-20T12:13:25;23.50;;;9.00;;
18449;SDS011;9354;50.194;7.690;2022-11-20T12:16:07;19.00;;;8.50;;
18449;SDS011;9354;50.194;7.690;2022-11-20T12:18:39;22.77;;;9.90;;
18449;SDS011;9354;50.194;7.690;2022-11-20T12:21:21;17.87;;;8.53;;
18449;SDS011;9354;50.194;7.690;2022-11-20T12:23:59;21.90;;;8.60;;
18449;SDS011;9354;50.194;7.690;2022-11-20T12:26:44;20.57;;;8.10;;
18449;SDS011;9354;50.194;7.690;2022-11-20T12:29:21;19.17;;;8.00;;
18449;SDS011;9354;50.194;7.690;2022-11-20T12:32:04;22.67;;;8.80;;
18449;SDS011;9354;50.194;7.690;2022-11-20T12:34:47;23.33;;;9.77;;
18449;SDS011;9354;50.194;7.690;2022-11-20T12:37:28;20.20;;;8.47;;
18449;SDS011;9354;50.194;7.690;2022-11-20T12:40:08;19.83;;;7.97;;
18449;SDS011;9354;50.194;7.690;2022-11-20T12:43:00;19.00;;;7.97;;
18449;SDS011;9354;50.194;7.690;2022-11-20T12:46:00;20.10;;;8.43;;
18449;SDS011;9354;50.194;7.690;2022-11-20T12:48:55;22.33;;;8.73;;
18449;SDS011;9354;50.194;7.690;2022-11-20T12:51:44;20.60;;;8.47;;
18449;SDS011;9354;50.194;7.690;2022-11-20T12:57:16;16.27;;;7.23;;
18449;SDS011;9354;50.194;7.690;2022-11-20T13:02:44;21.57;;;8.70;;
18449;SDS011;9354;50.194;7.690;2022-11-20T13:05:27;21.23;;;8.23;;
18449;SDS011;9354;50.194;7.690;2022-11-20T13:08:02;19.50;;;8.57;;
18449;SDS011;9354;50.194;7.690;2022-11-20T13:10:36;17.67;;;7.83;;
18449;SDS011;9354;50.194;7.690;2022-11-20T13:13:12;17.53;;;7.47;;
18449;SDS011;9354;50.194;7.690;2022-11-20T13:15:48;18.60;;;8.17;;
18449;SDS011;9354;50.194;7.690;2022-11-20T13:18:20;19.67;;;7.90;;
18449;SDS011;9354;50.194;7.690;2022-11-20T13:20:48;14.07;;;7.23;;
18449;SDS011;9354;50.194;7.690;2022-11-20T13:23:24;12.97;;;6.50;;
18449;SDS011;9354;50.194;7.690;2022-11-20T13:26:02;9.30;;;4.60;;
18449;SDS011;9354;50.194;7.690;2022-11-20T13:28:32;25.13;;;4.37;;
18449;SDS011;9354;50.194;7.690;2022-11-20T13:30:59;9.33;;;4.63;;
18449;SDS011;9354;50.194;7.690;2022-11-20T13:33:30;8.43;;;4.27;;
18449;SDS011;9354;50.194;7.690;2022-11-20T13:36:00;7.27;;;3.40;;
18449;SDS011;9354;50.194;7.690;2022-11-20T13:38:41;8.10;;;4.07;;
18449;SDS011;9354;50.194;7.690;2022-11-20T13:41:11;7.00;;;3.87;;
18449;SDS011;9354;50.194;7.690;2022-11-20T13:44:04;8.33;;;3.80;;
18449;SDS011;9354;50.194;7.690;2022-11-20T13:46:37;6.43;;;3.03;;
18449;SDS011;9354;50.194;7.690;2022-11-20T13:49:07;8.57;;;4.00;;
18449;SDS011;9354;50.194;7.690;2022-11-20T13:51:37;8.50;;;4.13;;
18449;SDS011;9354;50.194;7.690;2022-11-20T13:57:30;41.10;;;15.40;;
18449;SDS011;9354;50.194;7.690;2022-11-20T14:00:16;15.87;;;4.70;;
18449;SDS011;9354;50.194;7.690;2022-11-20T14:02:46;9.00;;;4.07;;
18449;SDS011;9354;50.194;7.690;2022-11-20T14:05:28;12.67;;;5.70;;
18449;SDS011;9354;50.194;7.690;2022-11-20T14:08:02;9.27;;;3.60;;
18449;SDS011;9354;50.194;7.690;2022-11-20T14:10:32;21.37;;;6.23;;
18449;SDS011;9354;50.194;7.690;2022-11-20T14:13:09;11.97;;;4.67;;
18449;SDS011;9354;50.194;7.690;2022-11-20T14:15:38;4.20;;;2.40;;
18449;SDS011;9354;50.194;7.690;2022-11-20T14:18:11;7.77;;;1.70;;
18449;SDS011;9354;50.194;7.690;2022-11-20T14:20:40;4.27;;;2.10;;
18449;SDS011;9354;50.194;7.690;2022-11-20T14:23:09;6.13;;;2.17;;
18449;SDS011;9354;50.194;7.690;2022-11-20T14:25:38;10.20;;;4.17;;
18449;SDS011;9354;50.194;7.690;2022-11-20T14:28:10;3.90;;;1.80;;
18449;SDS011;9354;50.194;7.690;2022-11-20T14:30:46;10.77;;;2.50;;
18449;SDS011;9354;50.194;7.690;2022-11-20T14:33:15;7.50;;;1.80;;
18449;SDS011;9354;50.194;7.690;2022-11-20T14:35:46;6.17;;;2.33;;
18449;SDS011;9354;50.194;7.690;2022-11-20T14:38:15;6.87;;;2.37;;
18449;SDS011;9354;50.194;7.690;2022-11-20T14:40:46;8.93;;;2.67;;
18449;SDS011;9354;50.194;7.690;2022-11-20T14:43:17;17.47;;;5.13;;
18449;SDS011;9354;50.194;7.690;2022-11-20T14:45:48;8.50;;;2.50;;
18449;SDS011;9354;50.194;7.690;2022-11-20T14:48:23;7.47;;;2.30;;
18449;SDS011;9354;50.194;7.690;2022-11-20T14:50:56;34.93;;;12.67;;
18449;SDS011;9354;50.194;7.690;2022-11-20T14:53:24;12.77;;;4.30;;
18449;SDS011;9354;50.194;7.690;2022-11-20T14:55:57;6.90;;;2.20;;
18449;SDS011;9354;50.194;7.690;2022-11-20T14:58:26;11.93;;;3.90;;
18449;SDS011;9354;50.194;7.690;2022-11-20T15:00:55;5.30;;;1.93;;
18449;SDS011;9354;50.194;7.690;2022-11-20T15:03:30;9.73;;;1.97;;
18449;SDS011;9354;50.194;7.690;2022-11-20T15:05:58;8.17;;;2.63;;
18449;SDS011;9354;50.194;7.690;2022-11-20T15:08:25;3.90;;;2.73;;
18449;SDS011;9354;50.194;7.690;2022-11-20T15:10:53;5.87;;;3.63;;
18449;SDS011;9354;50.194;7.690;2022-11-20T15:13:26;6.20;;;2.10;;
18449;SDS011;9354;50.194;7.690;2022-11-20T15:15:57;6.37;;;1.73;;
18449;SDS011;9354;50.194;7.690;2022-11-20T15:18:27;5.37;;;1.90;;